Time;durP1;ratioP1;P1;durP2;ratioP2;P2;SDS_P1;SDS_P2;PMS_P1;PMS_P2;Temp;Humidity;BMP_temperature;BMP_pressure;BME280_temperature;BME280_humidity;BME280_pressure;Samples;Min_cycle;Max_cycle;Signal;HPM_P1;HPM_P2
2022/09/16 00:01:31;;;;;;;4.68;3.67;;;;;;;17.64;75.03;95044.56;4919825;29;20202;-81
2022/09/16 00:03:58;;;;;;;3.58;3.28;;;;;;;17.67;75.02;95041.47;4921018;29;20699;-81
2022/09/16 00:06:27;;;;;;;3.47;3.17;;;;;;;17.70;75.16;95038.41;4933742;29;20232;-82
2022/09/16 00:08:55;;;;;;;6.13;3.60;;;;;;;17.61;75.97;95040.56;4939716;29;20214;-81
2022/09/16 00:11:22;;;;;;;3.65;3.22;;;;;;;17.63;76.17;95035.13;4938996;29;20249;-82
2022/09/16 00:13:49;;;;;;;3.70;3.40;;;;;;;17.62;75.98;95038.75;4939125;29;20241;-82
2022/09/16 00:16:19;;;;;;;3.30;3.00;;;;;;;17.61;75.61;95026.75;4926993;28;20234;-82
2022/09/16 00:18:45;;;;;;;3.95;3.40;;;;;;;17.56;76.13;95029.25;4919871;29;20209;-80
2022/09/16 00:21:12;;;;;;;4.05;3.08;;;;;;;17.54;75.52;95026.09;4921290;29;20258;-81
2022/09/16 00:23:39;;;;;;;3.40;3.15;;;;;;;17.62;75.57;95023.13;4920443;29;20591;-80
2022/09/16 00:26:06;;;;;;;3.90;3.30;;;;;;;17.65;75.34;95016.69;4933270;29;20272;-81
2022/09/16 00:28:32;;;;;;;3.28;2.90;;;;;;;17.61;75.57;95011.94;4940107;29;20221;-80
2022/09/16 00:30:59;;;;;;;3.30;3.10;;;;;;;17.53;76.20;95009.69;4940541;29;20613;-81
2022/09/16 00:33:26;;;;;;;3.50;3.20;;;;;;;17.46;76.66;95014.25;4939606;29;20202;-81
2022/09/16 00:36:05;;;;;;;4.47;3.00;;;;;;;17.50;76.10;95009.38;4929664;29;20264;-80
2022/09/16 00:38:32;;;;;;;3.25;2.97;;;;;;;17.56;76.38;95014.44;4920793;29;20274;-81
2022/09/16 00:41:00;;;;;;;5.38;3.25;;;;;;;17.58;75.65;95014.19;4917536;29;20199;-81
2022/09/16 00:43:26;;;;;;;3.80;3.42;;;;;;;17.54;75.48;95010.47;4920097;29;20203;-81
2022/09/16 00:45:59;;;;;;;3.40;3.10;;;;;;;17.56;75.38;95011.03;4929372;29;20226;-80
2022/09/16 00:48:30;;;;;;;4.15;3.25;;;;;;;17.55;75.56;95014.66;4938911;29;20285;-81
2022/09/16 00:51:00;;;;;;;3.53;3.22;;;;;;;17.52;75.64;95018.53;4938411;29;20202;-81
2022/09/16 00:53:30;;;;;;;3.60;3.08;;;;;;;17.52;75.52;95023.72;4938676;29;20260;-81
2022/09/16 00:56:00;;;;;;;4.15;3.08;;;;;;;17.54;75.00;95026.88;4927540;29;20233;-80
2022/09/16 00:58:34;;;;;;;4.72;3.13;;;;;;;17.58;74.96;95024.63;4919518;29;20604;-80
2022/09/16 01:01:03;;;;;;;3.17;2.88;;;;;;;17.53;74.97;95025.31;4913180;29;20669;-81
2022/09/16 01:03:31;;;;;;;6.28;3.58;;;;;;;17.46;75.35;95019.47;4919421;29;20679;-80
2022/09/16 01:05:57;;;;;;;3.50;3.20;;;;;;;17.42;75.33;95023.56;4929880;29;20225;-81
2022/09/16 01:08:24;;;;;;;3.45;3.15;;;;;;;17.44;75.34;95021.50;4937945;29;20284;-80
2022/09/16 01:10:50;;;;;;;4.05;3.08;;;;;;;17.36;75.93;95021.09;4936784;29;20221;-81
2022/09/16 01:13:18;;;;;;;4.65;3.22;;;;;;;17.41;75.73;95018.59;4937990;29;20627;-82
2022/09/16 01:15:54;;;;;;;3.50;3.20;;;;;;;17.45;75.52;95020.50;4929456;28;20230;-80
2022/09/16 01:18:27;;;;;;;5.50;3.30;;;;;;;17.47;75.45;95008.03;4918648;29;20261;-80
2022/09/16 01:21:13;;;;;;;3.25;3.03;;;;;;;17.49;75.29;95008.59;4917868;29;20198;-82
2022/09/16 01:24:28;;;;;;;4.35;2.90;;;;;;;17.49;75.24;95016.41;4918483;29;20226;-82
2022/09/16 01:27:13;;;;;;;3.20;2.90;;;;;;;17.46;75.30;95014.25;4936645;28;20229;-80
2022/09/16 01:30:13;;;;;;;3.30;3.00;;;;;;;17.42;75.83;95017.56;4938040;29;20217;-80
2022/09/16 01:32:52;;;;;;;3.80;2.97;;;;;;;17.39;75.80;95013.59;4939580;29;20197;-81
2022/09/16 01:35:28;;;;;;;3.25;2.88;;;;;;;17.38;75.85;95008.63;4933110;28;20238;-80
2022/09/16 01:38:02;;;;;;;3.20;2.90;;;;;;;17.37;75.57;95002.63;4919675;29;20194;-81
2022/09/16 01:40:35;;;;;;;4.43;2.90;;;;;;;17.35;75.66;95002.06;4919035;29;20257;-80
2022/09/16 01:43:12;;;;;;;3.08;2.78;;;;;;;17.32;75.44;95010.34;4920549;29;20626;-80
2022/09/16 01:45:43;;;;;;;3.85;2.83;;;;;;;17.34;75.31;95003.09;4926937;29;20232;-82
2022/09/16 01:48:18;;;;;;;3.20;2.90;;;;;;;17.35;75.28;95003.88;4938674;29;20284;-82
2022/09/16 01:50:48;;;;;;;3.50;3.20;;;;;;;17.26;75.68;95012.09;4938390;29;20197;-82
2022/09/16 01:53:21;;;;;;;3.40;3.10;;;;;;;17.22;75.59;95013.56;4939275;29;20225;-82
2022/09/16 01:55:52;;;;;;;4.20;3.00;;;;;;;17.26;75.41;95012.09;4928591;29;20225;-81
2022/09/16 01:58:23;;;;;;;3.42;2.83;;;;;;;17.26;75.33;95004.28;4916184;29;20202;-81
2022/09/16 02:00:55;;;;;;;3.47;2.95;;;;;;;17.24;75.22;95010.72;4914578;29;20851;-82
2022/09/16 02:03:27;;;;;;;3.95;3.15;;;;;;;17.22;75.47;95007.56;4915553;29;20206;-83
2022/09/16 02:05:58;;;;;;;3.20;2.90;;;;;;;17.23;75.57;95009.94;4925306;28;20606;-81
2022/09/16 02:08:32;;;;;;;3.15;2.85;;;;;;;17.17;76.15;95017.88;4934238;29;20719;-81
2022/09/16 02:11:00;;;;;;;3.38;3.08;;;;;;;17.16;76.34;95008.47;4933259;29;20208;-80
2022/09/16 02:13:30;;;;;;;3.50;3.20;;;;;;;17.17;76.06;95021.25;4934434;29;20269;-81
2022/09/16 02:16:03;;;;;;;3.30;3.10;;;;;;;17.18;76.06;95015.03;4917205;29;20265;-82
2022/09/16 02:18:36;;;;;;;3.10;2.90;;;;;;;17.15;76.21;95012.88;4914753;29;20217;-80
2022/09/16 02:21:06;;;;;;;3.60;3.28;;;;;;;17.09;76.88;95016.44;4915614;29;20237;-80
2022/09/16 02:23:38;;;;;;;3.63;3.33;;;;;;;17.05;76.96;95022.31;4915664;29;20202;-79
2022/09/16 02:26:08;;;;;;;3.40;3.10;;;;;;;17.04;77.17;95018.13;4927120;28;20259;-79
2022/09/16 02:28:37;;;;;;;3.45;3.15;;;;;;;17.05;77.22;95019.72;4934075;29;20222;-81
2022/09/16 02:31:07;;;;;;;3.72;2.95;;;;;;;17.07;77.69;95020.28;4936991;29;20217;-81
2022/09/16 02:33:39;;;;;;;4.00;3.15;;;;;;;17.01;77.40;95013.38;4938211;29;20268;-80
2022/09/16 02:36:08;;;;;;;4.18;3.00;;;;;;;17.03;77.25;95017.34;4926541;29;20237;-81
2022/09/16 02:38:40;;;;;;;3.78;3.00;;;;;;;17.05;77.21;95017.91;4918531;29;20234;-82
2022/09/16 02:41:08;;;;;;;3.20;3.00;;;;;;;17.07;77.35;95018.47;4919190;29;20261;-81
2022/09/16 02:43:34;;;;;;;4.35;3.38;;;;;;;17.06;77.54;95022.09;4918901;29;20278;-82
2022/09/16 02:46:10;;;;;;;3.45;3.05;;;;;;;16.98;77.92;95011.25;4929543;29;20248;-81
2022/09/16 02:48:49;;;;;;;3.00;2.70;;;;;;;16.98;78.30;95013.84;4937376;29;20853;-81
2022/09/16 02:51:26;;;;;;;3.65;3.35;;;;;;;16.96;78.27;95013.28;4937374;29;20197;-81
2022/09/16 02:53:56;;;;;;;3.55;3.20;;;;;;;17.02;78.07;95013.16;4932443;29;20229;-80
2022/09/16 02:56:29;;;;;;;3.55;3.20;;;;;;;17.01;78.01;95013.38;4924493;29;20229;-81
2022/09/16 02:58:55;;;;;;;4.07;3.03;;;;;;;17.06;78.04;95018.69;4913316;29;20812;-81
2022/09/16 03:01:23;;;;;;;3.60;3.30;;;;;;;17.07;77.75;95004.69;4917845;29;20202;-81
2022/09/16 03:03:54;;;;;;;3.50;3.20;;;;;;;17.03;78.12;95008.75;4919953;29;20222;-81
2022/09/16 03:06:23;;;;;;;4.95;3.13;;;;;;;17.05;77.89;95009.31;4932556;29;20308;-82
2022/09/16 03:08:51;;;;;;;4.82;3.53;;;;;;;17.10;77.91;95004.22;4938019;29;20210;-81
2022/09/16 03:11:37;;;;;;;3.60;3.30;;;;;;;17.11;77.80;95003.19;4938329;29;20570;-81
2022/09/16 03:14:23;;;;;;;2.95;2.75;;;;;;;17.10;78.23;94999.81;4933164;29;20229;-81
2022/09/16 03:17:01;;;;;;;3.92;3.05;;;;;;;17.04;77.98;95000.72;4920515;28;20240;-81
2022/09/16 03:19:41;;;;;;;3.50;3.20;;;;;;;17.01;78.10;94997.78;4918826;29;20201;-80
2022/09/16 03:22:18;;;;;;;3.60;3.30;;;;;;;17.03;78.18;94999.13;4918265;29;20198;-80
2022/09/16 03:24:55;;;;;;;4.95;3.50;;;;;;;17.02;77.95;94994.97;4919736;29;20217;-81
2022/09/16 03:27:30;;;;;;;3.65;3.30;;;;;;;17.03;77.69;94993.16;4938342;29;20687;-81
2022/09/16 03:30:03;;;;;;;3.88;3.35;;;;;;;16.97;78.05;94987.06;4932570;29;20244;-80
2022/09/16 03:32:33;;;;;;;3.50;3.28;;;;;;;17.00;77.96;94988.41;4938296;29;20714;-81
2022/09/16 03:35:08;;;;;;;4.97;3.22;;;;;;;17.00;78.33;94983.19;4928759;29;20257;-81
2022/09/16 03:37:39;;;;;;;3.65;3.35;;;;;;;17.05;78.13;94988.50;4918874;29;20678;-81
2022/09/16 03:40:10;;;;;;;3.92;3.53;;;;;;;17.06;77.99;94987.50;4918221;29;20568;-82
2022/09/16 03:42:38;;;;;;;4.45;3.50;;;;;;;17.05;78.51;94985.91;4918533;29;20303;-80
2022/09/16 03:45:06;;;;;;;3.83;3.53;;;;;;;17.03;78.33;94980.16;4921805;29;20234;-80
2022/09/16 03:47:33;;;;;;;4.07;3.42;;;;;;;17.04;78.46;94981.72;4937761;29;20206;-80
2022/09/16 03:49:59;;;;;;;4.07;3.22;;;;;;;17.04;78.22;94984.31;4936958;29;20748;-82
2022/09/16 03:52:27;;;;;;;3.85;3.55;;;;;;;17.03;78.19;94978.34;4937130;29;20209;-82
2022/09/16 03:54:53;;;;;;;4.07;3.67;;;;;;;17.07;78.04;94976.06;4935194;29;20221;-79
2022/09/16 03:57:20;;;;;;;4.78;3.53;;;;;;;17.05;78.05;94967.69;4918545;29;20269;-83
2022/09/16 03:59:46;;;;;;;4.00;3.60;;;;;;;17.05;77.91;94972.91;4917915;29;20194;-81
2022/09/16 04:02:12;;;;;;;4.18;3.78;;;;;;;17.05;77.98;94975.50;4917950;29;20194;-80
2022/09/16 04:04:39;;;;;;;4.05;3.75;;;;;;;17.04;77.97;94968.72;4917404;29;20229;-81
2022/09/16 04:07:05;;;;;;;4.93;4.03;;;;;;;16.98;78.55;94974.84;4937187;29;20193;-82
2022/09/16 04:09:33;;;;;;;5.20;3.40;;;;;;;16.97;78.58;94984.44;4936764;29;20277;-81
2022/09/16 04:11:59;;;;;;;4.07;3.75;;;;;;;16.94;78.32;94982.31;4931311;29;20213;-80
2022/09/16 04:14:26;;;;;;;4.70;4.18;;;;;;;16.94;78.08;94982.31;4936520;29;20308;-80
2022/09/16 04:16:54;;;;;;;5.28;4.30;;;;;;;16.88;78.26;94975.44;4918877;29;20784;-80
2022/09/16 04:19:20;;;;;;;5.22;3.92;;;;;;;16.90;78.20;94976.78;4917396;29;20203;-80
2022/09/16 04:21:47;;;;;;;4.50;4.10;;;;;;;16.86;78.20;94977.47;4917933;29;20203;-80
2022/09/16 04:24:13;;;;;;;5.03;4.53;;;;;;;16.88;78.18;94976.22;4918081;29;20218;-82
2022/09/16 04:26:41;;;;;;;4.97;4.47;;;;;;;16.86;78.32;94983.47;4934297;29;20285;-81
2022/09/16 04:29:08;;;;;;;5.25;4.20;;;;;;;16.84;78.43;94988.09;4938273;29;20233;-82
2022/09/16 04:31:34;;;;;;;4.90;4.50;;;;;;;16.84;78.55;94989.91;4937216;29;20204;-81
2022/09/16 04:34:02;;;;;;;5.65;3.92;;;;;;;16.86;78.30;94990.47;4937942;29;20220;-80
2022/09/16 04:36:28;;;;;;;4.50;4.10;;;;;;;16.90;77.99;94995.00;4914254;29;20234;-81
2022/09/16 04:38:55;;;;;;;4.40;4.00;;;;;;;16.93;78.11;94991.16;4913930;29;20711;-82
2022/09/16 04:41:23;;;;;;;4.80;4.40;;;;;;;16.95;77.97;94993.50;4914412;29;20734;-80
2022/09/16 04:43:52;;;;;;;7.75;4.13;;;;;;;16.93;78.08;94988.56;4916063;29;20254;-82
2022/09/16 04:46:19;;;;;;;5.88;4.63;;;;;;;16.90;78.16;94989.00;4929386;29;20221;-82
2022/09/16 04:48:47;;;;;;;4.95;4.50;;;;;;;16.84;78.04;94998.50;4938710;29;20618;-81
2022/09/16 04:51:14;;;;;;;7.03;4.57;;;;;;;16.83;78.06;94996.94;4936717;29;20217;-80
2022/09/16 04:53:43;;;;;;;7.80;4.68;;;;;;;16.82;77.89;94999.75;4936253;29;20217;-82
2022/09/16 04:56:14;;;;;;;6.22;4.50;;;;;;;16.83;77.71;94996.94;4937833;28;20296;-82
2022/09/16 04:58:41;;;;;;;6.95;5.38;;;;;;;16.80;77.58;94994.78;4936712;29;20229;-82
2022/09/16 05:01:12;;;;;;;6.38;5.25;;;;;;;16.76;77.50;94993.66;4938631;29;20217;-82
2022/09/16 05:03:39;;;;;;;7.88;5.15;;;;;;;16.82;77.73;94997.16;4936734;29;20265;-81
2022/09/16 05:06:08;;;;;;;9.32;6.13;;;;;;;16.83;78.38;94996.13;4936310;28;20305;-80
2022/09/16 05:08:35;;;;;;;9.35;5.57;;;;;;;16.75;78.53;95001.69;4936676;29;20202;-80
2022/09/16 05:11:05;;;;;;;5.82;5.30;;;;;;;16.78;77.66;95004.63;4935885;29;20621;-79
2022/09/16 05:13:31;;;;;;;8.55;5.15;;;;;;;16.82;77.80;95004.94;4933781;28;20261;-80
2022/09/16 05:16:02;;;;;;;18.98;16.35;;;;;;;16.77;77.42;95000.44;4935538;28;20264;-80
2022/09/16 05:18:29;;;;;;;12.48;9.30;;;;;;;16.75;77.62;95007.66;4934490;29;20224;-81
2022/09/16 05:20:57;;;;;;;7.80;7.00;;;;;;;16.79;77.42;95001.00;4934642;29;20275;-80
2022/09/16 05:23:24;;;;;;;9.80;7.80;;;;;;;16.84;76.52;95005.53;4934681;29;20292;-83
2022/09/16 05:25:50;;;;;;;12.07;10.77;;;;;;;16.83;76.66;94998.75;4935183;28;20349;-81
2022/09/16 05:28:17;;;;;;;11.43;10.32;;;;;;;16.81;76.89;95005.97;4937196;29;20686;-79
2022/09/16 05:30:43;;;;;;;7.55;6.65;;;;;;;16.80;76.46;95001.78;4936400;29;20226;-80
2022/09/16 05:33:10;;;;;;;6.43;5.60;;;;;;;16.79;76.86;95003.59;4936162;29;20681;-80
2022/09/16 05:35:37;;;;;;;6.25;5.68;;;;;;;16.82;76.40;94992.75;4934598;28;20292;-79
2022/09/16 05:38:04;;;;;;;6.68;5.70;;;;;;;16.77;76.78;94997.03;4934813;29;20205;-80
2022/09/16 05:40:30;;;;;;;7.28;5.55;;;;;;;16.76;76.85;94993.66;4936182;29;20202;-80
2022/09/16 05:42:57;;;;;;;6.55;5.70;;;;;;;16.72;77.15;94994.38;4936194;29;20198;-81
2022/09/16 05:45:23;;;;;;;5.50;5.00;;;;;;;16.73;76.80;94991.53;4935841;28;20237;-82
2022/09/16 05:47:50;;;;;;;6.07;5.40;;;;;;;16.69;77.45;94984.41;4936500;29;20225;-81
2022/09/16 05:50:16;;;;;;;5.95;5.35;;;;;;;16.68;77.20;94988.03;4935317;29;20229;-82
2022/09/16 05:52:44;;;;;;;6.38;5.78;;;;;;;16.68;77.25;94991.41;4937173;29;20233;-82
2022/09/16 05:55:11;;;;;;;7.68;5.82;;;;;;;16.72;77.57;94991.75;4936245;28;20780;-81
2022/09/16 05:57:37;;;;;;;5.93;5.40;;;;;;;16.80;76.96;94997.38;4936224;29;20213;-80
2022/09/16 06:00:04;;;;;;;6.10;5.57;;;;;;;16.88;76.92;94993.66;4936393;29;20273;-82
2022/09/16 06:02:31;;;;;;;6.40;5.30;;;;;;;16.92;76.57;94987.75;4937074;29;20193;-82
2022/09/16 06:04:58;;;;;;;7.35;5.93;;;;;;;16.86;76.35;94991.28;4936522;28;20332;-80
2022/09/16 06:07:24;;;;;;;7.03;6.25;;;;;;;16.84;76.17;94988.09;4934805;29;20201;-82
2022/09/16 06:09:53;;;;;;;7.15;5.90;;;;;;;16.85;76.43;94987.09;4937939;29;20229;-82
2022/09/16 06:12:19;;;;;;;7.45;6.05;;;;;;;16.79;77.10;94990.59;4937070;29;20630;-80
2022/09/16 06:14:46;;;;;;;6.45;5.85;;;;;;;16.75;77.61;94988.69;4937077;28;20221;-81
2022/09/16 06:17:12;;;;;;;9.68;6.15;;;;;;;16.72;77.92;94989.16;4937118;29;20216;-82
2022/09/16 06:19:39;;;;;;;7.18;6.47;;;;;;;16.76;77.63;94972.06;4937672;29;20248;-80
2022/09/16 06:22:05;;;;;;;6.95;6.20;;;;;;;16.75;77.63;94981.66;4938134;29;20217;-82
2022/09/16 06:24:31;;;;;;;6.55;5.95;;;;;;;16.84;77.73;94984.72;4931952;28;20281;-80
2022/09/16 06:26:59;;;;;;;6.35;5.60;;;;;;;16.80;78.59;94981.00;4931114;28;20229;-81
2022/09/16 06:29:26;;;;;;;6.40;5.80;;;;;;;16.83;77.46;94988.34;4936604;29;20233;-81
2022/09/16 06:31:52;;;;;;;5.80;5.20;;;;;;;16.79;77.95;94979.41;4935425;29;20205;-81
2022/09/16 06:34:18;;;;;;;6.53;5.72;;;;;;;16.81;77.95;94985.97;4934927;28;20257;-79
2022/09/16 06:36:45;;;;;;;6.22;5.63;;;;;;;16.79;78.25;94987.22;4935678;28;20248;-81
2022/09/16 06:39:13;;;;;;;8.70;6.07;;;;;;;16.74;77.89;94979.31;4933409;29;20206;-81
2022/09/16 06:41:39;;;;;;;7.03;6.32;;;;;;;16.79;78.09;94977.59;4934985;29;20198;-81
2022/09/16 06:44:07;;;;;;;9.18;6.03;;;;;;;16.74;78.98;94980.09;4935302;29;20313;-80
2022/09/16 06:46:34;;;;;;;9.50;5.88;;;;;;;16.72;78.82;94991.75;4935342;28;20917;-80
2022/09/16 06:49:00;;;;;;;6.13;5.32;;;;;;;16.74;78.28;94993.09;4936022;29;20198;-79
2022/09/16 06:51:29;;;;;;;6.30;5.63;;;;;;;16.82;77.73;94995.34;4933179;29;20218;-80
2022/09/16 06:54:00;;;;;;;7.13;6.43;;;;;;;16.88;77.23;94991.03;4934792;29;20217;-80
2022/09/16 06:56:26;;;;;;;6.50;5.85;;;;;;;16.93;77.07;94986.72;4917419;28;20226;-81
2022/09/16 06:58:54;;;;;;;12.15;6.65;;;;;;;16.94;77.06;94984.91;4917166;29;20201;-81
2022/09/16 07:01:24;;;;;;;6.88;6.18;;;;;;;16.95;76.57;94983.09;4916824;29;20205;-82
2022/09/16 07:03:53;;;;;;;7.57;6.25;;;;;;;16.89;76.72;94975.22;4916676;29;20643;-81
2022/09/16 07:06:23;;;;;;;8.90;6.60;;;;;;;16.91;76.04;94978.38;4928637;28;20284;-82
2022/09/16 07:08:49;;;;;;;7.70;6.90;;;;;;;16.95;75.86;94973.47;4934685;29;20394;-80
2022/09/16 07:11:18;;;;;;;8.00;6.50;;;;;;;16.95;75.97;94977.91;4934604;29;20225;-81
2022/09/16 07:13:46;;;;;;;8.57;6.50;;;;;;;16.98;75.71;94980.03;4934076;29;20339;-80
2022/09/16 07:16:15;;;;;;;7.13;6.38;;;;;;;16.92;75.66;94986.97;4923768;28;20253;-82
2022/09/16 07:18:44;;;;;;;7.63;6.43;;;;;;;16.96;75.78;94980.28;4918533;29;20214;-80
2022/09/16 07:21:12;;;;;;;7.75;6.82;;;;;;;17.02;75.55;94986.38;4914927;29;20233;-81
2022/09/16 07:23:39;;;;;;;10.77;7.30;;;;;;;17.02;75.34;94986.38;4918598;29;20198;-81
2022/09/16 07:26:08;;;;;;;8.35;6.90;;;;;;;17.05;75.48;94993.72;4929339;29;20232;-81
2022/09/16 07:28:35;;;;;;;11.73;6.88;;;;;;;16.99;75.03;94977.22;4938506;29;20209;-80
2022/09/16 07:31:03;;;;;;;8.45;7.75;;;;;;;17.04;75.38;94989.53;4937543;29;20722;-80
2022/09/16 07:33:30;;;;;;;9.38;6.78;;;;;;;17.10;75.12;94991.22;4938572;29;21001;-80
2022/09/16 07:36:04;;;;;;;7.35;6.63;;;;;;;17.16;74.79;94992.88;4927169;28;20622;-79
2022/09/16 07:38:31;;;;;;;11.38;7.43;;;;;;;17.17;73.98;94991.84;4918416;29;20195;-80
2022/09/16 07:41:04;;;;;;;9.65;6.68;;;;;;;17.14;74.10;94990.50;4916061;29;20201;-79
2022/09/16 07:43:31;;;;;;;8.55;6.93;;;;;;;17.12;73.58;94989.97;4919927;29;20242;-79
2022/09/16 07:45:58;;;;;;;8.25;6.57;;;;;;;17.11;73.75;94977.97;4929093;28;20272;-79
2022/09/16 07:48:24;;;;;;;7.65;6.95;;;;;;;17.14;73.75;94984.50;4936069;29;20201;-80
2022/09/16 07:50:58;;;;;;;8.52;6.65;;;;;;;17.16;73.90;94985.06;4936519;29;20229;-78
2022/09/16 07:53:28;;;;;;;8.13;7.18;;;;;;;17.24;74.06;94977.69;4939711;29;20657;-80
2022/09/16 07:55:55;;;;;;;8.50;7.15;;;;;;;17.26;74.16;94978.25;4929313;28;20277;-79
2022/09/16 07:58:21;;;;;;;7.18;6.47;;;;;;;17.25;73.81;94976.69;4921843;29;20202;-78
2022/09/16 08:00:49;;;;;;;8.18;6.82;;;;;;;17.18;74.41;94988.22;4919313;29;20198;-81
2022/09/16 08:03:16;;;;;;;7.57;6.80;;;;;;;17.17;73.76;94984.03;4920655;29;20194;-80
2022/09/16 08:05:43;;;;;;;7.88;7.07;;;;;;;17.23;73.24;94981.31;4926602;28;20570;-80
2022/09/16 08:08:09;;;;;;;8.27;6.85;;;;;;;17.27;74.07;94989.47;4936331;29;20467;-82
2022/09/16 08:10:37;;;;;;;8.88;6.18;;;;;;;17.36;74.08;94982.84;4936106;29;20229;-81
2022/09/16 08:13:04;;;;;;;7.68;6.97;;;;;;;17.37;73.00;94979.22;4937346;29;20625;-81
2022/09/16 08:15:31;;;;;;;9.15;7.03;;;;;;;17.41;72.61;94982.16;4929535;28;20234;-82
2022/09/16 08:17:57;;;;;;;7.90;7.10;;;;;;;17.43;72.17;94980.09;4918008;29;20202;-82
2022/09/16 08:20:25;;;;;;;7.72;6.97;;;;;;;17.40;72.45;94986.56;4917750;29;20597;-81
2022/09/16 08:22:51;;;;;;;8.75;6.82;;;;;;;17.46;72.99;94990.06;4917231;29;20240;-81
2022/09/16 08:25:18;;;;;;;7.45;6.57;;;;;;;17.49;73.18;94985.19;4922006;28;20649;-81
2022/09/16 08:27:45;;;;;;;8.20;7.10;;;;;;;17.44;72.95;94994.69;4938894;29;20206;-81
2022/09/16 08:30:12;;;;;;;8.13;6.72;;;;;;;17.45;73.23;94978.06;4931221;29;20253;-81
2022/09/16 08:32:39;;;;;;;7.10;6.43;;;;;;;17.47;73.70;94991.63;4935923;29;20912;-82
2022/09/16 08:35:06;;;;;;;7.70;6.70;;;;;;;17.50;73.71;94994.56;4923613;28;20245;-81
2022/09/16 08:37:34;;;;;;;7.25;6.65;;;;;;;17.52;73.34;94989.88;4917024;29;20206;-81
2022/09/16 08:40:01;;;;;;;7.50;6.53;;;;;;;17.60;72.98;94993.94;4916692;29;20234;-81
2022/09/16 08:42:47;;;;;;;9.00;6.25;;;;;;;17.64;73.31;94987.28;4915873;29;20194;-82
2022/09/16 08:45:22;;;;;;;7.18;6.43;;;;;;;17.66;72.93;94981.84;4920132;28;20320;-81
2022/09/16 08:48:00;;;;;;;6.90;5.78;;;;;;;17.71;72.79;94987.91;4935973;29;20204;-81
2022/09/16 08:50:29;;;;;;;7.95;7.00;;;;;;;17.73;72.79;94982.44;4936023;29;20221;-81
2022/09/16 08:52:57;;;;;;;8.13;7.25;;;;;;;17.63;73.47;94985.66;4935573;29;20778;-82
2022/09/16 08:55:30;;;;;;;8.23;6.88;;;;;;;17.64;73.06;94976.84;4929475;28;20233;-81
2022/09/16 08:58:00;;;;;;;8.20;6.47;;;;;;;17.71;73.20;94979.28;4916660;29;20220;-81
2022/09/16 09:00:29;;;;;;;8.98;6.75;;;;;;;17.67;73.42;94980.81;4916488;29;20193;-79
2022/09/16 09:03:00;;;;;;;7.20;6.47;;;;;;;17.73;73.45;94979.84;4917267;29;20206;-80
2022/09/16 09:05:34;;;;;;;8.05;6.55;;;;;;;17.65;73.89;94993.28;4922281;29;20237;-79
2022/09/16 09:08:14;;;;;;;6.88;6.22;;;;;;;17.68;73.16;94980.56;4934305;29;20212;-79
2022/09/16 09:10:48;;;;;;;10.13;7.25;;;;;;;17.67;72.78;94991.22;4933412;29;20228;-79
2022/09/16 09:13:31;;;;;;;7.68;6.95;;;;;;;17.61;72.78;94988.50;4933219;29;20197;-79
2022/09/16 09:16:08;;;;;;;7.32;6.68;;;;;;;17.61;72.31;94980.69;4922529;29;20229;-80
2022/09/16 09:18:45;;;;;;;9.07;6.40;;;;;;;17.58;72.83;94980.34;4915541;29;20214;-79
2022/09/16 09:21:22;;;;;;;8.82;6.95;;;;;;;17.55;73.00;94978.22;4915594;29;20261;-79
2022/09/16 09:24:05;;;;;;;9.85;6.95;;;;;;;17.53;73.90;94978.44;4917557;29;20222;-78
2022/09/16 09:26:41;;;;;;;8.80;6.45;;;;;;;17.49;74.40;94985.19;4929372;29;20229;-80
2022/09/16 09:29:34;;;;;;;7.28;5.63;;;;;;;17.48;74.15;94981.00;4933883;29;20657;-79
2022/09/16 09:32:15;;;;;;;5.95;5.45;;;;;;;17.50;74.13;94976.34;4933531;29;20229;-78
2022/09/16 09:35:00;;;;;;;9.48;6.15;;;;;;;17.51;74.56;94966.72;4929882;29;20319;-79
2022/09/16 09:37:44;;;;;;;7.68;6.35;;;;;;;17.52;75.13;94958.66;4915624;29;20205;-80
2022/09/16 09:40:16;;;;;;;7.35;6.30;;;;;;;17.42;75.41;94961.09;4913816;29;20250;-80
2022/09/16 09:42:48;;;;;;;9.23;6.38;;;;;;;17.33;75.83;94962.47;4915550;29;20226;-80
2022/09/16 09:45:21;;;;;;;7.65;6.70;;;;;;;17.27;77.84;94966.81;4921163;28;20233;-79
2022/09/16 09:47:53;;;;;;;8.80;6.95;;;;;;;17.31;78.29;94969.75;4935985;29;20292;-80
2022/09/16 09:50:28;;;;;;;6.47;5.88;;;;;;;17.25;79.23;94970.69;4936032;29;20193;-80
2022/09/16 09:53:02;;;;;;;10.73;7.53;;;;;;;17.29;79.15;94964.00;4938760;29;20227;-79
2022/09/16 09:55:33;;;;;;;9.23;7.10;;;;;;;17.21;79.96;94962.53;4938725;29;20238;-80
2022/09/16 09:58:08;;;;;;;7.55;6.75;;;;;;;17.29;79.72;94969.19;4939667;29;20201;-81
2022/09/16 10:00:35;;;;;;;7.63;6.88;;;;;;;17.28;80.18;94962.41;4936995;29;20223;-80
2022/09/16 10:03:06;;;;;;;10.82;8.10;;;;;;;17.32;79.96;94960.13;4938723;29;20197;-81
2022/09/16 10:05:33;;;;;;;8.85;7.95;;;;;;;17.26;80.58;94961.84;4936929;28;20245;-81
2022/09/16 10:08:04;;;;;;;8.82;7.93;;;;;;;17.26;80.93;94960.03;4937217;29;20240;-80
2022/09/16 10:10:34;;;;;;;8.55;7.75;;;;;;;17.25;82.80;94953.25;4936623;29;20312;-80
2022/09/16 10:13:08;;;;;;;11.35;8.50;;;;;;;17.20;84.10;94960.19;4936830;29;20213;-81
2022/09/16 10:15:34;;;;;;;8.93;7.97;;;;;;;17.20;83.91;94947.97;4936906;28;20243;-80
2022/09/16 10:18:09;;;;;;;10.43;8.32;;;;;;;17.19;83.57;94948.19;4938100;29;20236;-81
2022/09/16 10:20:38;;;;;;;8.68;7.72;;;;;;;17.20;84.05;94947.16;4937498;29;20197;-81
2022/09/16 10:23:09;;;;;;;9.38;8.30;;;;;;;17.15;85.62;94954.88;4939338;29;20261;-80
2022/09/16 10:25:36;;;;;;;9.13;8.23;;;;;;;17.07;87.93;94947.44;4936888;29;20320;-80
2022/09/16 10:28:05;;;;;;;8.70;7.80;;;;;;;17.11;86.97;94943.38;4937655;29;20201;-80
2022/09/16 10:30:41;;;;;;;9.25;7.75;;;;;;;17.04;87.66;94932.31;4936091;29;20205;-81
2022/09/16 10:33:17;;;;;;;10.75;8.57;;;;;;;17.05;87.22;94936.50;4935472;29;20674;-80
2022/09/16 10:35:55;;;;;;;9.07;8.15;;;;;;;17.09;85.54;94938.41;4935450;28;20229;-80
2022/09/16 10:38:24;;;;;;;12.52;8.48;;;;;;;16.97;88.96;94936.84;4934807;29;20205;-80
2022/09/16 10:40:52;;;;;;;8.75;7.40;;;;;;;17.03;88.75;94934.13;4936135;29;20610;-80
2022/09/16 10:43:18;;;;;;;9.15;8.35;;;;;;;17.05;86.21;94931.28;4937182;29;20213;-80
2022/09/16 10:45:47;;;;;;;9.02;8.23;;;;;;;17.10;85.89;94926.97;4936318;28;20237;-80
2022/09/16 10:48:18;;;;;;;9.88;7.88;;;;;;;17.05;87.03;94924.28;4936288;29;20213;-80
2022/09/16 10:50:55;;;;;;;8.68;7.65;;;;;;;17.05;88.21;94921.69;4937049;29;20209;-79
2022/09/16 10:53:29;;;;;;;8.20;7.30;;;;;;;16.88;85.73;94933.84;4938836;29;20713;-80
2022/09/16 10:55:58;;;;;;;6.78;6.18;;;;;;;16.57;83.03;94935.78;4935579;28;20621;-80
2022/09/16 10:58:24;;;;;;;7.63;6.40;;;;;;;16.40;83.22;94939.34;4938319;29;20204;-80
2022/09/16 11:01:01;;;;;;;6.50;5.90;;;;;;;16.23;82.99;94932.22;4937977;29;20202;-79
2022/09/16 11:04:09;;;;;;;7.13;4.82;;;;;;;16.08;84.24;94946.69;4936596;29;20202;-80
2022/09/16 11:06:47;;;;;;;6.63;5.43;;;;;;;15.86;83.60;94951.66;4919865;29;20800;-80
2022/09/16 11:09:21;;;;;;;6.20;5.45;;;;;;;15.75;84.84;94949.84;4936529;29;20189;-81
2022/09/16 11:11:59;;;;;;;5.78;5.15;;;;;;;15.88;84.49;94954.81;4937332;29;20235;-80
2022/09/16 11:14:39;;;;;;;6.07;5.32;;;;;;;15.87;84.41;94942.84;4936695;29;20721;-81
2022/09/16 11:17:22;;;;;;;6.57;5.50;;;;;;;15.85;85.57;94944.88;4936430;29;20222;-79
2022/09/16 11:20:02;;;;;;;6.72;5.93;;;;;;;15.84;86.05;94958.88;4937094;29;20684;-81
2022/09/16 11:22:36;;;;;;;7.78;6.32;;;;;;;15.80;87.21;94966.31;4937091;29;20194;-80
2022/09/16 11:25:22;;;;;;;6.38;5.78;;;;;;;15.72;86.94;94963.25;4936724;29;20233;-81
2022/09/16 11:28:00;;;;;;;6.03;5.35;;;;;;;15.68;87.14;94952.53;4935757;29;20201;-80
2022/09/16 11:30:30;;;;;;;7.00;5.43;;;;;;;15.69;87.00;94950.72;4935022;29;20260;-81
2022/09/16 11:33:21;;;;;;;6.72;5.75;;;;;;;15.73;87.63;94952.66;4939561;29;20205;-81
2022/09/16 11:36:12;;;;;;;5.93;5.43;;;;;;;15.66;86.67;94954.56;4936599;28;20579;-81
2022/09/16 11:38:48;;;;;;;5.90;5.13;;;;;;;15.60;86.84;94972.81;4935986;29;20810;-81
2022/09/16 11:41:23;;;;;;;6.78;5.57;;;;;;;15.39;87.86;94981.88;4936892;29;20193;-81
2022/09/16 11:44:08;;;;;;;6.75;5.07;;;;;;;15.34;87.79;94979.16;4938254;29;20248;-81
2022/09/16 11:46:42;;;;;;;6.43;4.93;;;;;;;15.27;85.88;94981.84;4937506;28;20241;-82
2022/09/16 11:49:22;;;;;;;5.30;4.80;;;;;;;15.27;85.84;94981.84;4939135;29;20202;-82
2022/09/16 11:52:01;;;;;;;6.15;4.85;;;;;;;15.29;87.29;94986.81;4936736;29;20274;-81